Bangkok Bridge — 3FTZ8 — position and weather

sailwx.info

Track history (hours):
 
Tides and Currents Weather Stations Pressure Air Temp Water Temp Dewpoint Dewpoint Depression Visibility Wind Speed Wind Dir Waves Ship Positions

Bangkok Bridge

Last reported at 2014-Nov-23 03:08 UTC. Time now 2014-Nov-27 04:22 UTC.
Position N 29°42' E 122°38'.

Length 267 m; draft 11.6 m.

Type: Ship (hazmat cat A). MMSI: 353368000.

Date/timePositionNaut miles runAvg speedWind from/ knotsBaromVisibWave heightAir tempDewpointWater temp
2014-Nov-23 03:08N 29°42' E 122°38'1220.8
2014-Nov-23 02:34N 29°43' E 122°25'1312.6
2014-Nov-23 01:33N 29°50' E 122°13'1211.6
2014-Nov-23 00:33N 29°56' E 122°01'9 4.5
2014-Nov-22 22:29N 29°57' E 121°50'0 0.0
2014-Nov-22 21:29N 29°57' E 121°50'0 0.0
2014-Nov-22 20:23N 29°57' E 121°50'0 0.0
2014-Nov-22 19:05N 29°57' E 121°50'0 0.0
2014-Nov-22 18:26N 29°57' E 121°50'0 0.0
2014-Nov-22 17:29N 29°57' E 121°50'0 0.0
2014-Nov-22 16:14N 29°57' E 121°50'0 0.0
2014-Nov-22 15:32N 29°57' E 121°50'0 0.0
2014-Nov-22 14:17N 29°57' E 121°50'0 0.0
2014-Nov-22 13:26N 29°57' E 121°50'0 0.0
2014-Nov-22 10:32N 29°57' E 121°50'4 4.1
2014-Nov-22 09:32N 29°57' E 121°55'1212.6
2014-Nov-22 08:33N 29°56' E 122°09'1211.7
2014-Nov-22 07:33N 29°46' E 122°17'7 2.2
2014-Nov-22 04:31N 29°44' E 122°24'0 0.1
2014-Nov-22 02:18N 29°44' E 122°25'0 0.0
2014-Nov-21 21:12N 29°44' E 122°25'0 0.1
2014-Nov-21 17:24N 29°44' E 122°25'1 0.5
2014-Nov-21 14:32N 29°44' E 122°27'1312.9
2014-Nov-21 13:33N 29°48' E 122°40'6212.3
2014-Nov-21 08:32N 30°49' E 122°54'2713.3
2014-Nov-21 06:33N 31°06' E 122°31'1414.0
2014-Nov-21 05:33N 31°08' E 122°15'1313.4
2014-Nov-21 04:33N 31°15' E 122°01'1313.0
2014-Nov-21 03:33N 31°18' E 121°46'6 5.5
2014-Nov-21 02:25N 31°20' E 121°39'0 0.0
2014-Nov-21 01:31N 31°20' E 121°39'0 0.0
2014-Nov-21 00:31N 31°20' E 121°39'0 0.0
2014-Nov-20 23:31N 31°20' E 121°39'0 0.0
2014-Nov-20 22:31N 31°20' E 121°39'0 0.0
2014-Nov-20 21:31N 31°20' E 121°39'0 0.0
2014-Nov-20 20:31N 31°20' E 121°39'0 0.1
2014-Nov-20 19:31N 31°20' E 121°39'0 0.1
2014-Nov-20 18:31N 31°20' E 121°39'0 0.0
2014-Nov-20 17:31N 31°20' E 121°39'0 0.0
2014-Nov-20 16:31N 31°20' E 121°39'0 0.1
2014-Nov-20 15:31N 31°20' E 121°39'1 1.3
2014-Nov-20 14:33N 31°21' E 121°38'9 8.6
2014-Nov-20 13:34N 31°18' E 121°48'1212.4
2014-Nov-20 12:33N 31°15' E 122°02'1111.4
2014-Nov-20 11:33N 31°09' E 122°13'1110.5
2014-Nov-20 10:33N 31°06' E 122°25'82 5.4
2014-Nov-19 19:23N 29°45' E 122°39'1011.6
2014-Nov-19 18:33N 29°41' E 122°29'1414.1
2014-Nov-19 17:34N 29°48' E 122°15'1211.7
2014-Nov-19 16:33N 29°54' E 122°04'1 0.7
2014-Nov-19 15:16N 29°53' E 122°03'0 0.0
2014-Nov-19 14:28N 29°53' E 122°03'0 0.0
2014-Nov-19 12:22N 29°53' E 122°03'0 0.0
2014-Nov-19 11:16N 29°53' E 122°03'0 0.0
2014-Nov-19 10:28N 29°53' E 122°03'0 0.0
2014-Nov-19 09:04N 29°53' E 122°03'0 0.0
2014-Nov-19 08:22N 29°53' E 122°03'0 0.0
2014-Nov-19 06:22N 29°53' E 122°03'0 0.0
2014-Nov-19 04:28N 29°53' E 122°03'0 0.3
2014-Nov-19 03:34N 29°54' E 122°04'8 8.1
2014-Nov-19 02:33N 29°51' E 122°12'1010.0
2014-Nov-19 01:33N 29°44' E 122°21'1211.8
2014-Nov-19 00:32N 29°40' E 122°34'1613.5
2014-Nov-18 23:23N 29°25' E 122°32'1315.4
2014-Nov-18 22:33N 29°12' E 122°30'40415.3
2014-Nov-17 20:07N 22°53' E 119°55'916.0
2014-Nov-17 19:33N 22°44' E 119°57'1515.2
2014-Nov-17 18:33N 22°34' E 120°09'9 8.5
2014-Nov-17 17:28N 22°33' E 120°20'0 0.0
2014-Nov-17 16:28N 22°33' E 120°20'0 0.0
2014-Nov-17 15:28N 22°33' E 120°20'0 0.1
2014-Nov-17 14:28N 22°33' E 120°20'0 0.1
2014-Nov-17 13:28N 22°33' E 120°20'0 0.0
2014-Nov-17 12:28N 22°33' E 120°20'0 0.0
2014-Nov-17 11:28N 22°33' E 120°20'0 0.0
2014-Nov-17 10:28N 22°33' E 120°20'0 0.0
2014-Nov-17 09:28N 22°33' E 120°20'0 0.0
2014-Nov-17 08:28N 22°33' E 120°20'0 0.0
2014-Nov-17 07:28N 22°33' E 120°20'0 0.0
2014-Nov-17 06:28N 22°33' E 120°20'0 0.0
2014-Nov-17 05:33N 22°33' E 120°20'6 6.0
2014-Nov-17 04:33N 22°30' E 120°14'1414.2
2014-Nov-17 03:33N 22°16' E 120°15'  
2014-Nov-14 18:26N 34°06' E 134°56'1416.0
2014-Nov-14 17:33N 34°20' E 134°58'1717.5
2014-Nov-14 16:33N 34°32' E 135°13'9 7.9
2014-Nov-14 15:27N 34°41' E 135°16'0 0.0
2014-Nov-14 14:33N 34°41' E 135°16'0 0.0
2014-Nov-14 12:33N 34°41' E 135°16'0 0.0
2014-Nov-14 11:33N 34°41' E 135°16'0 0.0
2014-Nov-14 10:33N 34°41' E 135°16'0 0.0
2014-Nov-14 09:33N 34°41' E 135°16'0 0.0
2014-Nov-14 08:33N 34°41' E 135°16'0 0.0
2014-Nov-14 07:33N 34°41' E 135°16'0 0.0
2014-Nov-14 06:33N 34°41' E 135°16'0 0.0
2014-Nov-14 05:33N 34°41' E 135°16'0 0.0
2014-Nov-14 04:33N 34°41' E 135°16'0 0.0
2014-Nov-14 03:33N 34°41' E 135°16'0 0.0
2014-Nov-14 02:33N 34°41' E 135°16'0 0.0
2014-Nov-14 01:33N 34°41' E 135°16'0 0.0
2014-Nov-14 00:33N 34°41' E 135°16'0 0.0
2014-Nov-13 23:33N 34°41' E 135°16'0 0.2
2014-Nov-13 22:33N 34°41' E 135°15'4 4.4
2014-Nov-13 21:33N 34°36' E 135°17'1616.6
2014-Nov-13 20:34N 34°23' E 135°05'1514.5
2014-Nov-13 19:33N 34°09' E 134°60'1111.2
2014-Nov-13 18:33N 33°58' E 134°60'  
Track history (hours):
 
Tides and Currents Weather Stations Pressure Air Temp Water Temp Dewpoint Dewpoint Depression Visibility Wind Speed Wind Dir Waves Ship Positions

Bangkok Bridge

Last reported at 2014-Nov-23 03:08 UTC. Time now 2014-Nov-27 04:22 UTC.
Position N 29°42' E 122°38'.

Length 267 m; draft 11.6 m.

Type: Ship (hazmat cat A). MMSI: 353368000.

Date/timePositionNaut miles runAvg speedWind from/ knotsBaromVisibWave heightAir tempDewpointWater temp
2014-Nov-23 03:08N 29°42' E 122°38'1220.8
2014-Nov-23 02:34N 29°43' E 122°25'1312.6
2014-Nov-23 01:33N 29°50' E 122°13'1211.6
2014-Nov-23 00:33N 29°56' E 122°01'9 4.5
2014-Nov-22 22:29N 29°57' E 121°50'0 0.0
2014-Nov-22 21:29N 29°57' E 121°50'0 0.0
2014-Nov-22 20:23N 29°57' E 121°50'0 0.0
2014-Nov-22 19:05N 29°57' E 121°50'0 0.0
2014-Nov-22 18:26N 29°57' E 121°50'0 0.0
2014-Nov-22 17:29N 29°57' E 121°50'0 0.0
2014-Nov-22 16:14N 29°57' E 121°50'0 0.0
2014-Nov-22 15:32N 29°57' E 121°50'0 0.0
2014-Nov-22 14:17N 29°57' E 121°50'0 0.0
2014-Nov-22 13:26N 29°57' E 121°50'0 0.0
2014-Nov-22 10:32N 29°57' E 121°50'4 4.1
2014-Nov-22 09:32N 29°57' E 121°55'1212.6
2014-Nov-22 08:33N 29°56' E 122°09'1211.7
2014-Nov-22 07:33N 29°46' E 122°17'7 2.2
2014-Nov-22 04:31N 29°44' E 122°24'0 0.1
2014-Nov-22 02:18N 29°44' E 122°25'0 0.0
2014-Nov-21 21:12N 29°44' E 122°25'0 0.1
2014-Nov-21 17:24N 29°44' E 122°25'1 0.5
2014-Nov-21 14:32N 29°44' E 122°27'1312.9
2014-Nov-21 13:33N 29°48' E 122°40'6212.3
2014-Nov-21 08:32N 30°49' E 122°54'2713.3
2014-Nov-21 06:33N 31°06' E 122°31'1414.0
2014-Nov-21 05:33N 31°08' E 122°15'1313.4
2014-Nov-21 04:33N 31°15' E 122°01'1313.0
2014-Nov-21 03:33N 31°18' E 121°46'6 5.5
2014-Nov-21 02:25N 31°20' E 121°39'0 0.0
2014-Nov-21 01:31N 31°20' E 121°39'0 0.0
2014-Nov-21 00:31N 31°20' E 121°39'0 0.0
2014-Nov-20 23:31N 31°20' E 121°39'0 0.0
2014-Nov-20 22:31N 31°20' E 121°39'0 0.0
2014-Nov-20 21:31N 31°20' E 121°39'0 0.0
2014-Nov-20 20:31N 31°20' E 121°39'0 0.1
2014-Nov-20 19:31N 31°20' E 121°39'0 0.1
2014-Nov-20 18:31N 31°20' E 121°39'0 0.0
2014-Nov-20 17:31N 31°20' E 121°39'0 0.0
2014-Nov-20 16:31N 31°20' E 121°39'0 0.1
2014-Nov-20 15:31N 31°20' E 121°39'1 1.3
2014-Nov-20 14:33N 31°21' E 121°38'9 8.6
2014-Nov-20 13:34N 31°18' E 121°48'1212.4
2014-Nov-20 12:33N 31°15' E 122°02'1111.4
2014-Nov-20 11:33N 31°09' E 122°13'1110.5
2014-Nov-20 10:33N 31°06' E 122°25'82 5.4
2014-Nov-19 19:23N 29°45' E 122°39'1011.6
2014-Nov-19 18:33N 29°41' E 122°29'1414.1
2014-Nov-19 17:34N 29°48' E 122°15'1211.7
2014-Nov-19 16:33N 29°54' E 122°04'1 0.7
2014-Nov-19 15:16N 29°53' E 122°03'0 0.0
2014-Nov-19 14:28N 29°53' E 122°03'0 0.0
2014-Nov-19 12:22N 29°53' E 122°03'0 0.0
2014-Nov-19 11:16N 29°53' E 122°03'0 0.0
2014-Nov-19 10:28N 29°53' E 122°03'0 0.0
2014-Nov-19 09:04N 29°53' E 122°03'0 0.0
2014-Nov-19 08:22N 29°53' E 122°03'0 0.0
2014-Nov-19 06:22N 29°53' E 122°03'0 0.0
2014-Nov-19 04:28N 29°53' E 122°03'0 0.3
2014-Nov-19 03:34N 29°54' E 122°04'8 8.1
2014-Nov-19 02:33N 29°51' E 122°12'1010.0
2014-Nov-19 01:33N 29°44' E 122°21'1211.8
2014-Nov-19 00:32N 29°40' E 122°34'1613.5
2014-Nov-18 23:23N 29°25' E 122°32'1315.4
2014-Nov-18 22:33N 29°12' E 122°30'40415.3
2014-Nov-17 20:07N 22°53' E 119°55'916.0
2014-Nov-17 19:33N 22°44' E 119°57'1515.2
2014-Nov-17 18:33N 22°34' E 120°09'9 8.5
2014-Nov-17 17:28N 22°33' E 120°20'0 0.0
2014-Nov-17 16:28N 22°33' E 120°20'0 0.0
2014-Nov-17 15:28N 22°33' E 120°20'0 0.1
2014-Nov-17 14:28N 22°33' E 120°20'0 0.1
2014-Nov-17 13:28N 22°33' E 120°20'0 0.0
2014-Nov-17 12:28N 22°33' E 120°20'0 0.0
2014-Nov-17 11:28N 22°33' E 120°20'0 0.0
2014-Nov-17 10:28N 22°33' E 120°20'0 0.0
2014-Nov-17 09:28N 22°33' E 120°20'0 0.0
2014-Nov-17 08:28N 22°33' E 120°20'0 0.0
2014-Nov-17 07:28N 22°33' E 120°20'0 0.0
2014-Nov-17 06:28N 22°33' E 120°20'0 0.0
2014-Nov-17 05:33N 22°33' E 120°20'6 6.0
2014-Nov-17 04:33N 22°30' E 120°14'1414.2
2014-Nov-17 03:33N 22°16' E 120°15'  
2014-Nov-14 18:26N 34°06' E 134°56'1416.0
2014-Nov-14 17:33N 34°20' E 134°58'1717.5
2014-Nov-14 16:33N 34°32' E 135°13'9 7.9
2014-Nov-14 15:27N 34°41' E 135°16'0 0.0
2014-Nov-14 14:33N 34°41' E 135°16'0 0.0
2014-Nov-14 12:33N 34°41' E 135°16'0 0.0
2014-Nov-14 11:33N 34°41' E 135°16'0 0.0
2014-Nov-14 10:33N 34°41' E 135°16'0 0.0
2014-Nov-14 09:33N 34°41' E 135°16'0 0.0
2014-Nov-14 08:33N 34°41' E 135°16'0 0.0
2014-Nov-14 07:33N 34°41' E 135°16'0 0.0
2014-Nov-14 06:33N 34°41' E 135°16'0 0.0
2014-Nov-14 05:33N 34°41' E 135°16'0 0.0
2014-Nov-14 04:33N 34°41' E 135°16'0 0.0
2014-Nov-14 03:33N 34°41' E 135°16'0 0.0
2014-Nov-14 02:33N 34°41' E 135°16'0 0.0
2014-Nov-14 01:33N 34°41' E 135°16'0 0.0
2014-Nov-14 00:33N 34°41' E 135°16'0 0.0
2014-Nov-13 23:33N 34°41' E 135°16'0 0.2
2014-Nov-13 22:33N 34°41' E 135°15'4 4.4
2014-Nov-13 21:33N 34°36' E 135°17'1616.6
2014-Nov-13 20:34N 34°23' E 135°05'1514.5
2014-Nov-13 19:33N 34°09' E 134°60'1111.2
2014-Nov-13 18:33N 33°58' E 134°60'  

Dump ship's entire track history